Time;durP1;ratioP1;P1;durP2;ratioP2;P2;SDS_P1;SDS_P2;PMS_P1;PMS_P2;Temp;Humidity;BMP_temperature;BMP_pressure;BME280_temperature;BME280_humidity;BME280_pressure;Samples;Min_cycle;Max_cycle;Signal;HPM_P1;HPM_P2
2021/05/05 00:01:00;;;;;;;5.57;3.00;;;;;;;;;;5094806;28;20450;-61
2021/05/05 00:03:27;;;;;;;3.90;2.70;;;;;;;;;;5094870;28;20489;-60
2021/05/05 00:05:54;;;;;;;6.20;3.70;;;;;;;;;;5094581;28;20446;-61
2021/05/05 00:08:21;;;;;;;4.87;2.10;;;;;;;;;;5094779;28;20470;-62
2021/05/05 00:10:48;;;;;;;5.20;2.87;;;;;;;;;;5094577;28;20872;-60
2021/05/05 00:13:14;;;;;;;6.97;3.03;;;;;;;;;;5094811;28;20473;-60
2021/05/05 00:15:41;;;;;;;4.27;2.63;;;;;;;;;;5094759;28;20442;-61
2021/05/05 00:18:07;;;;;;;4.33;2.90;;;;;;;;;;5094659;28;20451;-61
2021/05/05 00:20:35;;;;;;;5.23;2.37;;;;;;;;;;5094336;28;20454;-60
2021/05/05 00:23:02;;;;;;;3.97;2.80;;;;;;;;;;5094501;28;20467;-61
2021/05/05 00:25:28;;;;;;;3.50;2.70;;;;;;;;;;5094539;28;20277;-62
2021/05/05 00:27:55;;;;;;;5.80;2.50;;;;;;;;;;5094448;28;20454;-61
2021/05/05 00:30:22;;;;;;;5.57;2.83;;;;;;;;;;5094252;28;20994;-62
2021/05/05 00:32:49;;;;;;;5.60;2.33;;;;;;;;;;5094237;28;20607;-60
2021/05/05 00:35:16;;;;;;;5.60;2.43;;;;;;;;;;5094206;28;20450;-61
2021/05/05 00:37:43;;;;;;;4.27;2.33;;;;;;;;;;5094487;28;20453;-60
2021/05/05 00:40:11;;;;;;;2.93;2.40;;;;;;;;;;5094385;28;20451;-60
2021/05/05 00:42:37;;;;;;;4.33;2.20;;;;;;;;;;5094395;28;20482;-58
2021/05/05 00:45:05;;;;;;;4.30;1.97;;;;;;;;;;5094263;28;20977;-59
2021/05/05 00:47:31;;;;;;;4.20;2.20;;;;;;;;;;5093862;28;20496;-60
2021/05/05 00:49:58;;;;;;;2.63;1.80;;;;;;;;;;5093930;28;20458;-58
2021/05/05 00:52:25;;;;;;;5.03;2.90;;;;;;;;;;5093761;28;20982;-61
2021/05/05 00:54:52;;;;;;;3.80;2.27;;;;;;;;;;5093849;28;20438;-59
2021/05/05 00:57:19;;;;;;;3.00;2.03;;;;;;;;;;5093787;28;20950;-61
2021/05/05 00:59:46;;;;;;;5.00;2.23;;;;;;;;;;5093462;28;20950;-60
2021/05/05 01:02:13;;;;;;;2.50;1.40;;;;;;;;;;5093347;28;20985;-60
2021/05/05 01:04:39;;;;;;;5.47;2.37;;;;;;;;;;5093683;28;21006;-61
2021/05/05 01:07:06;;;;;;;3.40;2.00;;;;;;;;;;5093706;28;20523;-61
2021/05/05 01:09:33;;;;;;;4.13;2.40;;;;;;;;;;5093581;28;20814;-60
2021/05/05 01:12:00;;;;;;;5.67;2.33;;;;;;;;;;5093466;28;20875;-60
2021/05/05 01:14:27;;;;;;;4.07;2.70;;;;;;;;;;5093413;28;20442;-61
2021/05/05 01:16:54;;;;;;;3.97;2.80;;;;;;;;;;5093204;28;20931;-60
2021/05/05 01:19:21;;;;;;;5.17;2.50;;;;;;;;;;5093312;28;20843;-61
2021/05/05 01:21:48;;;;;;;3.73;2.53;;;;;;;;;;5093190;28;20467;-61
2021/05/05 01:24:15;;;;;;;5.10;2.40;;;;;;;;;;5093394;28;20474;-60
2021/05/05 01:26:41;;;;;;;2.93;2.43;;;;;;;;;;5093269;28;20504;-60
2021/05/05 01:29:09;;;;;;;3.50;2.40;;;;;;;;;;5093062;28;20439;-60
2021/05/05 01:31:35;;;;;;;4.87;2.30;;;;;;;;;;5093169;28;20450;-61
2021/05/05 01:34:02;;;;;;;5.57;2.70;;;;;;;;;;5093214;28;20478;-61
2021/05/05 01:36:31;;;;;;;3.97;2.50;;;;;;;;;;5093230;28;20825;-60
2021/05/05 01:38:58;;;;;;;4.00;2.90;;;;;;;;;;5093059;28;20485;-61
2021/05/05 01:41:25;;;;;;;4.53;2.90;;;;;;;;;;5092795;28;20961;-60
2021/05/05 01:43:51;;;;;;;5.30;3.20;;;;;;;;;;5092325;28;20990;-61
2021/05/05 01:46:19;;;;;;;3.87;2.77;;;;;;;;;;5093123;28;20450;-60
2021/05/05 01:48:46;;;;;;;11.60;3.37;;;;;;;;;;5093055;28;20450;-61
2021/05/05 01:51:13;;;;;;;4.27;3.10;;;;;;;;;;5092888;28;20446;-60
2021/05/05 01:53:40;;;;;;;5.10;3.23;;;;;;;;;;5093179;28;20470;-61
2021/05/05 01:56:07;;;;;;;4.00;2.73;;;;;;;;;;5092706;28;20827;-61
2021/05/05 01:58:34;;;;;;;5.30;2.60;;;;;;;;;;5092419;28;20958;-60
2021/05/05 02:01:01;;;;;;;6.67;2.80;;;;;;;;;;5092704;28;20451;-58
2021/05/05 02:03:28;;;;;;;3.37;2.50;;;;;;;;;;5092824;28;20466;-58
2021/05/05 02:05:54;;;;;;;2.77;2.47;;;;;;;;;;5092573;28;20450;-61
2021/05/05 02:08:21;;;;;;;3.27;2.40;;;;;;;;;;5092604;28;20460;-58
2021/05/05 02:10:47;;;;;;;3.90;2.60;;;;;;;;;;5092412;28;20446;-60
2021/05/05 02:13:15;;;;;;;3.47;2.87;;;;;;;;;;5092162;28;20470;-59
2021/05/05 02:15:42;;;;;;;6.47;3.50;;;;;;;;;;5094437;28;20503;-58
2021/05/05 02:18:10;;;;;;;3.47;2.90;;;;;;;;;;5093437;28;20450;-58
2021/05/05 02:20:37;;;;;;;5.47;3.57;;;;;;;;;;5093322;28;20454;-59
2021/05/05 02:23:04;;;;;;;4.83;3.67;;;;;;;;;;5092263;28;20474;-58
2021/05/05 02:25:31;;;;;;;6.30;4.47;;;;;;;;;;5092065;28;20611;-59
2021/05/05 02:27:58;;;;;;;5.03;4.00;;;;;;;;;;5092290;28;20447;-57
2021/05/05 02:30:26;;;;;;;5.30;4.40;;;;;;;;;;5092574;28;20481;-57
2021/05/05 02:32:53;;;;;;;5.63;4.40;;;;;;;;;;5093085;28;20561;-60
2021/05/05 02:35:20;;;;;;;8.30;4.50;;;;;;;;;;5092844;28;20442;-60
2021/05/05 02:37:47;;;;;;;9.87;4.73;;;;;;;;;;5091899;28;20450;-61
2021/05/05 02:40:14;;;;;;;6.67;4.53;;;;;;;;;;5091548;28;20483;-61
2021/05/05 02:42:41;;;;;;;9.03;5.10;;;;;;;;;;5091855;28;20852;-60
2021/05/05 02:45:08;;;;;;;9.27;4.27;;;;;;;;;;5091850;28;20493;-60
2021/05/05 02:47:35;;;;;;;3.50;3.20;;;;;;;;;;5092140;28;20828;-59
2021/05/05 02:50:02;;;;;;;5.50;4.17;;;;;;;;;;5091681;28;20454;-59
2021/05/05 02:52:28;;;;;;;6.47;3.47;;;;;;;;;;5091744;28;20524;-60
2021/05/05 02:54:55;;;;;;;5.83;3.97;;;;;;;;;;5091997;28;20503;-61
2021/05/05 02:57:21;;;;;;;6.40;4.37;;;;;;;;;;5092087;28;20442;-60
2021/05/05 02:59:48;;;;;;;5.13;3.67;;;;;;;;;;5091781;28;20443;-60
2021/05/05 03:02:14;;;;;;;5.97;4.03;;;;;;;;;;5091792;28;20466;-60
2021/05/05 03:04:42;;;;;;;5.47;4.03;;;;;;;;;;5091770;28;20478;-60
2021/05/05 03:07:09;;;;;;;6.50;4.20;;;;;;;;;;5091547;28;20450;-60
2021/05/05 03:09:35;;;;;;;5.90;3.90;;;;;;;;;;5091970;28;20450;-60
2021/05/05 03:12:02;;;;;;;5.07;4.17;;;;;;;;;;5091677;28;20456;-60
2021/05/05 03:14:29;;;;;;;4.43;3.93;;;;;;;;;;5092161;28;20458;-58
2021/05/05 03:16:56;;;;;;;5.07;3.70;;;;;;;;;;5092001;28;20498;-60
2021/05/05 03:19:23;;;;;;;7.07;4.20;;;;;;;;;;5091914;28;20446;-60
2021/05/05 03:21:50;;;;;;;7.23;4.47;;;;;;;;;;5091428;28;20450;-60
2021/05/05 03:24:16;;;;;;;5.77;4.50;;;;;;;;;;5091860;28;20478;-60
2021/05/05 03:26:43;;;;;;;4.77;4.37;;;;;;;;;;5094804;28;20802;-60
2021/05/05 03:29:10;;;;;;;8.73;5.37;;;;;;;;;;5095601;28;20457;-61
2021/05/05 03:31:36;;;;;;;4.97;4.43;;;;;;;;;;5095377;28;20446;-61
2021/05/05 03:34:04;;;;;;;7.80;5.33;;;;;;;;;;5095331;28;20465;-58
2021/05/05 03:36:31;;;;;;;8.13;6.13;;;;;;;;;;5095603;28;20450;-61
2021/05/05 03:39:00;;;;;;;10.57;6.27;;;;;;;;;;5095517;28;20924;-59
2021/05/05 03:41:27;;;;;;;7.63;6.87;;;;;;;;;;5095358;28;20457;-60
2021/05/05 03:43:53;;;;;;;8.23;6.10;;;;;;;;;;5095004;28;20882;-60
2021/05/05 03:46:20;;;;;;;13.17;7.17;;;;;;;;;;5095200;28;20453;-60
2021/05/05 03:48:46;;;;;;;11.67;7.37;;;;;;;;;;5095033;28;20450;-61
2021/05/05 03:51:13;;;;;;;14.43;8.43;;;;;;;;;;5094809;28;20449;-61
2021/05/05 03:53:39;;;;;;;8.67;6.97;;;;;;;;;;5095148;28;20834;-61
2021/05/05 03:56:07;;;;;;;11.80;8.07;;;;;;;;;;5095133;28;20446;-60
2021/05/05 03:58:33;;;;;;;9.47;7.73;;;;;;;;;;5094945;28;20934;-61
2021/05/05 04:01:00;;;;;;;11.23;7.50;;;;;;;;;;5094860;28;20449;-60
2021/05/05 04:03:26;;;;;;;10.73;7.03;;;;;;;;;;5092986;28;20474;-61
2021/05/05 04:05:53;;;;;;;11.47;7.30;;;;;;;;;;5094586;28;20482;-62
2021/05/05 04:08:19;;;;;;;9.83;7.03;;;;;;;;;;5094154;28;20539;-60
2021/05/05 04:10:46;;;;;;;6.07;5.07;;;;;;;;;;5094625;28;20450;-60
2021/05/05 04:13:13;;;;;;;9.77;6.83;;;;;;;;;;5094574;28;20474;-60
2021/05/05 04:15:40;;;;;;;8.23;6.27;;;;;;;;;;5094563;28;20461;-61
2021/05/05 04:18:06;;;;;;;11.90;7.37;;;;;;;;;;5094420;28;20504;-60
2021/05/05 04:20:34;;;;;;;13.97;7.87;;;;;;;;;;5094584;28;20442;-60
2021/05/05 04:23:00;;;;;;;9.57;7.53;;;;;;;;;;5091657;28;20465;-61
2021/05/05 04:25:27;;;;;;;9.47;7.60;;;;;;;;;;5094400;28;20482;-61
2021/05/05 04:27:54;;;;;;;10.97;7.30;;;;;;;;;;5093858;28;20446;-60
2021/05/05 04:30:21;;;;;;;8.67;7.70;;;;;;;;;;5093861;28;20455;-60
2021/05/05 04:32:48;;;;;;;11.57;7.60;;;;;;;;;;5094091;28;20469;-60
2021/05/05 04:35:15;;;;;;;8.97;7.17;;;;;;;;;;5094217;28;20449;-60
2021/05/05 04:37:41;;;;;;;12.00;8.07;;;;;;;;;;5093942;28;20874;-60
2021/05/05 04:40:09;;;;;;;11.03;8.50;;;;;;;;;;5094054;28;20859;-60
2021/05/05 04:42:35;;;;;;;13.33;9.20;;;;;;;;;;5093802;28;20474;-60
2021/05/05 04:45:03;;;;;;;15.37;9.30;;;;;;;;;;5094325;28;20540;-59
2021/05/05 04:47:31;;;;;;;12.53;9.93;;;;;;;;;;5094202;28;20821;-60
2021/05/05 04:49:57;;;;;;;13.70;10.67;;;;;;;;;;5094003;28;20438;-58
2021/05/05 04:52:24;;;;;;;10.73;7.23;;;;;;;;;;5093969;28;20470;-61
2021/05/05 04:54:50;;;;;;;15.23;11.00;;;;;;;;;;5094040;28;20434;-61
2021/05/05 04:57:17;;;;;;;13.83;10.10;;;;;;;;;;5093900;28;20519;-59
2021/05/05 04:59:43;;;;;;;15.70;10.77;;;;;;;;;;5093468;28;20443;-61
2021/05/05 05:02:10;;;;;;;15.77;10.37;;;;;;;;;;5094284;28;20470;-61
2021/05/05 05:04:38;;;;;;;13.73;10.33;;;;;;;;;;5093722;28;20485;-59
2021/05/05 05:07:05;;;;;;;14.23;8.80;;;;;;;;;;5093744;28;20450;-62
2021/05/05 05:09:32;;;;;;;13.73;10.57;;;;;;;;;;5093442;28;20532;-62
2021/05/05 05:11:58;;;;;;;17.47;10.80;;;;;;;;;;5093427;28;20449;-60
2021/05/05 05:14:25;;;;;;;13.80;9.23;;;;;;;;;;5093689;28;20442;-61
2021/05/05 05:16:51;;;;;;;14.67;10.37;;;;;;;;;;5089235;28;20453;-65
2021/05/05 05:19:18;;;;;;;16.23;11.33;;;;;;;;;;5092022;28;20442;-64
2021/05/05 05:21:45;;;;;;;15.33;11.97;;;;;;;;;;5092759;28;20450;-64
2021/05/05 05:24:12;;;;;;;20.27;12.40;;;;;;;;;;5092691;28;20478;-63
2021/05/05 05:26:38;;;;;;;17.10;11.37;;;;;;;;;;5092794;28;20451;-63
2021/05/05 05:29:05;;;;;;;14.90;10.13;;;;;;;;;;5092248;28;20461;-64
2021/05/05 05:31:32;;;;;;;15.47;11.90;;;;;;;;;;5092615;28;20451;-63
2021/05/05 05:33:58;;;;;;;18.27;12.20;;;;;;;;;;5092932;28;20466;-63
2021/05/05 05:36:25;;;;;;;21.80;12.90;;;;;;;;;;5092753;28;20450;-63
2021/05/05 05:38:52;;;;;;;13.53;8.97;;;;;;;;;;5092443;28;20447;-65
2021/05/05 05:41:19;;;;;;;15.60;11.90;;;;;;;;;;5092289;28;20450;-65
2021/05/05 05:43:45;;;;;;;11.07;7.03;;;;;;;;;;5092378;28;20631;-66
2021/05/05 05:46:12;;;;;;;14.07;12.23;;;;;;;;;;5092694;28;20443;-64
2021/05/05 05:48:38;;;;;;;15.03;11.03;;;;;;;;;;5090908;28;20835;-63
2021/05/05 05:51:05;;;;;;;14.77;9.97;;;;;;;;;;5092418;28;20515;-64
2021/05/05 05:53:32;;;;;;;9.60;6.43;;;;;;;;;;5094847;28;20473;-64
2021/05/05 05:55:59;;;;;;;10.27;5.60;;;;;;;;;;5094713;28;20439;-65
2021/05/05 05:58:25;;;;;;;8.07;4.97;;;;;;;;;;5092156;28;20461;-61
2021/05/05 06:00:52;;;;;;;5.50;3.63;;;;;;;;;;5092356;28;20453;-61
2021/05/05 06:03:19;;;;;;;7.03;4.53;;;;;;;;;;5092354;28;20844;-61
2021/05/05 06:05:45;;;;;;;7.03;4.90;;;;;;;;;;5093864;28;20490;-62
2021/05/05 06:08:13;;;;;;;9.07;4.73;;;;;;;;;;5093264;28;20454;-62
2021/05/05 06:10:39;;;;;;;6.23;4.67;;;;;;;;;;5092253;28;20447;-60
2021/05/05 06:13:06;;;;;;;7.03;3.97;;;;;;;;;;5092252;28;20535;-62
2021/05/05 06:15:33;;;;;;;7.93;5.57;;;;;;;;;;5092283;28;20439;-61
2021/05/05 06:18:00;;;;;;;5.57;5.00;;;;;;;;;;5092009;28;20450;-60
2021/05/05 06:20:26;;;;;;;10.17;7.20;;;;;;;;;;5091788;28;20450;-61
2021/05/05 06:22:53;;;;;;;9.67;7.70;;;;;;;;;;5091601;28;20474;-60
2021/05/05 06:25:19;;;;;;;14.47;8.57;;;;;;;;;;5091839;28;20485;-61
2021/05/05 06:27:46;;;;;;;14.37;9.67;;;;;;;;;;5091762;28;20450;-60
2021/05/05 06:30:15;;;;;;;13.53;10.30;;;;;;;;;;5091757;28;20460;-60
2021/05/05 06:32:41;;;;;;;14.00;11.57;;;;;;;;;;5091611;28;20498;-61
2021/05/05 06:35:09;;;;;;;16.87;13.80;;;;;;;;;;5091884;28;20457;-60
2021/05/05 06:37:35;;;;;;;16.97;13.23;;;;;;;;;;5091072;28;20442;-63
2021/05/05 06:40:02;;;;;;;18.97;14.20;;;;;;;;;;5091908;28;20452;-60
2021/05/05 06:42:29;;;;;;;19.63;15.40;;;;;;;;;;5091546;28;20563;-60
2021/05/05 06:44:55;;;;;;;18.40;14.33;;;;;;;;;;5091526;28;20492;-56
2021/05/05 06:47:23;;;;;;;20.63;15.73;;;;;;;;;;5091389;28;20458;-59
2021/05/05 06:49:49;;;;;;;18.67;12.00;;;;;;;;;;5091319;28;20457;-63
2021/05/05 06:52:16;;;;;;;17.07;11.87;;;;;;;;;;5091343;28;20886;-62
2021/05/05 06:54:42;;;;;;;22.40;13.63;;;;;;;;;;5091463;28;20450;-62
2021/05/05 06:57:09;;;;;;;15.97;11.77;;;;;;;;;;5092008;28;20456;-62
2021/05/05 06:59:36;;;;;;;12.40;10.13;;;;;;;;;;5092403;28;20457;-60
2021/05/05 07:02:02;;;;;;;10.27;6.90;;;;;;;;;;5095788;28;20842;-60
2021/05/05 07:04:29;;;;;;;9.63;7.63;;;;;;;;;;5095453;28;20990;-61
2021/05/05 07:06:56;;;;;;;8.33;7.10;;;;;;;;;;5095321;28;20450;-60
2021/05/05 07:09:23;;;;;;;8.57;7.07;;;;;;;;;;5095680;28;20448;-60
2021/05/05 07:11:49;;;;;;;8.63;7.10;;;;;;;;;;5095260;28;20448;-61
2021/05/05 07:14:16;;;;;;;8.83;7.93;;;;;;;;;;5095472;28;20455;-60
2021/05/05 07:16:42;;;;;;;6.73;5.70;;;;;;;;;;5095318;28;20447;-60
2021/05/05 07:19:09;;;;;;;7.40;6.10;;;;;;;;;;5095220;28;20451;-60
2021/05/05 07:21:36;;;;;;;8.77;7.07;;;;;;;;;;5094821;28;20489;-61
2021/05/05 07:24:03;;;;;;;9.63;8.50;;;;;;;;;;5095286;28;20467;-61
2021/05/05 07:26:30;;;;;;;10.47;8.37;;;;;;;;;;5095410;28;20449;-61
2021/05/05 07:28:56;;;;;;;12.43;8.53;;;;;;;;;;5094756;28;20931;-60
2021/05/05 07:31:23;;;;;;;11.03;8.90;;;;;;;;;;5095120;28;20537;-59
2021/05/05 07:33:51;;;;;;;10.43;9.10;;;;;;;;;;5094796;28;20978;-60
2021/05/05 07:36:19;;;;;;;11.73;9.37;;;;;;;;;;5095305;28;20446;-58
2021/05/05 07:38:52;;;;;;;10.23;8.77;;;;;;;;;;5094851;28;20799;-59
2021/05/05 07:41:49;;;;;;;12.40;9.37;;;;;;;;;;5095029;28;20453;-63
2021/05/05 07:47:01;;;;;;;11.60;9.77;;;;;;;;;;5094914;28;20433;-60
2021/05/05 07:49:32;;;;;;;10.03;8.90;;;;;;;;;;5094585;28;20442;-57
2021/05/05 07:51:58;;;;;;;6.47;5.50;;;;;;;;;;5094500;28;21168;-58
2021/05/05 07:54:26;;;;;;;11.07;9.27;;;;;;;;;;5094808;28;20517;-60
2021/05/05 07:56:52;;;;;;;11.20;9.23;;;;;;;;;;5094278;28;20453;-61
2021/05/05 07:59:19;;;;;;;12.23;9.97;;;;;;;;;;5094637;28;20437;-60
2021/05/05 08:01:45;;;;;;;11.10;9.03;;;;;;;;;;5094534;28;20469;-63
2021/05/05 08:04:12;;;;;;;10.40;8.33;;;;;;;;;;5094483;28;20491;-60
2021/05/05 08:06:39;;;;;;;9.40;7.53;;;;;;;;;;5094443;28;20450;-60
2021/05/05 08:09:05;;;;;;;11.43;8.37;;;;;;;;;;5094104;28;20950;-61
2021/05/05 08:11:33;;;;;;;11.43;8.20;;;;;;;;;;5093305;28;21051;-61
2021/05/05 08:14:00;;;;;;;11.93;9.53;;;;;;;;;;5094707;28;20473;-60
2021/05/05 08:16:26;;;;;;;11.67;9.53;;;;;;;;;;5095029;28;20447;-60
2021/05/05 08:18:53;;;;;;;13.20;9.80;;;;;;;;;;5094533;28;20454;-60
2021/05/05 08:21:20;;;;;;;15.47;9.90;;;;;;;;;;5094594;28;20453;-59
2021/05/05 08:23:47;;;;;;;9.77;7.77;;;;;;;;;;5093917;28;20470;-59
2021/05/05 08:26:13;;;;;;;9.07;7.40;;;;;;;;;;5094254;28;20482;-62
2021/05/05 08:28:41;;;;;;;8.77;7.27;;;;;;;;;;5093877;28;20454;-62
2021/05/05 08:31:08;;;;;;;9.00;7.47;;;;;;;;;;5093907;28;20450;-61
2021/05/05 08:33:35;;;;;;;7.60;6.73;;;;;;;;;;5093757;28;20474;-60
2021/05/05 08:36:02;;;;;;;5.40;4.80;;;;;;;;;;5093891;28;20447;-59
2021/05/05 08:38:28;;;;;;;5.20;4.70;;;;;;;;;;5093301;28;20447;-59
2021/05/05 08:40:55;;;;;;;4.63;3.70;;;;;;;;;;5093893;28;20447;-64
2021/05/05 08:43:22;;;;;;;4.07;3.67;;;;;;;;;;5093739;28;20470;-64
2021/05/05 08:45:49;;;;;;;3.40;3.10;;;;;;;;;;5093465;28;20490;-63
2021/05/05 08:48:18;;;;;;;3.73;3.23;;;;;;;;;;5093649;28;20453;-63
2021/05/05 08:50:45;;;;;;;3.43;3.13;;;;;;;;;;5093576;28;20446;-64
2021/05/05 08:53:12;;;;;;;4.80;4.00;;;;;;;;;;5093354;28;21207;-61
2021/05/05 08:55:38;;;;;;;10.70;6.27;;;;;;;;;;5093457;28;20446;-61
2021/05/05 08:58:05;;;;;;;8.50;6.40;;;;;;;;;;5093388;28;20452;-61
2021/05/05 09:00:32;;;;;;;7.07;5.37;;;;;;;;;;5093409;28;20212;-62
2021/05/05 09:03:02;;;;;;;7.20;5.20;;;;;;;;;;5093416;28;20609;-62
2021/05/05 09:05:28;;;;;;;7.30;5.63;;;;;;;;;;5093098;28;20259;-62
2021/05/05 09:07:55;;;;;;;6.70;4.63;;;;;;;;;;5093310;28;20212;-62
2021/05/05 09:10:23;;;;;;;5.73;4.63;;;;;;;;;;5093238;28;20576;-61
2021/05/05 09:12:51;;;;;;;7.53;4.50;;;;;;;;;;5093198;28;20224;-61
2021/05/05 09:15:19;;;;;;;7.40;4.37;;;;;;;;;;5093151;28;20673;-61
2021/05/05 09:17:48;;;;;;;6.20;4.43;;;;;;;;;;5092830;28;20727;-61
2021/05/05 09:20:23;;;;;;;7.33;4.40;;;;;;;;;;5092704;28;20212;-61
2021/05/05 09:22:52;;;;;;;8.03;4.77;;;;;;;;;;5092088;28;20225;-62
2021/05/05 09:25:21;;;;;;;8.13;4.20;;;;;;;;;;5092818;28;20317;-60
2021/05/05 09:28:02;;;;;;;10.43;4.63;;;;;;;;;;5092694;28;20268;-61
2021/05/05 09:30:29;;;;;;;7.07;4.93;;;;;;;;;;5092412;28;20205;-60
2021/05/05 09:32:56;;;;;;;8.27;4.67;;;;;;;;;;5092648;28;20228;-63
2021/05/05 09:35:30;;;;;;;8.07;5.03;;;;;;;;;;5094067;28;20203;-62
2021/05/05 09:37:59;;;;;;;10.43;5.47;;;;;;;;;;5093428;28;20670;-62
2021/05/05 09:40:26;;;;;;;9.87;4.97;;;;;;;;;;5093200;28;20202;-62
2021/05/05 09:42:53;;;;;;;6.33;4.77;;;;;;;;;;5092502;28;20240;-62
2021/05/05 09:45:19;;;;;;;9.57;5.37;;;;;;;;;;5093225;28;20226;-62
2021/05/05 09:47:47;;;;;;;12.27;4.53;;;;;;;;;;5093827;28;20221;-64
2021/05/05 09:50:28;;;;;;;10.10;4.53;;;;;;;;;;5092588;28;20205;-63
2021/05/05 09:53:10;;;;;;;7.70;4.63;;;;;;;;;;5090224;28;20274;-62
2021/05/05 09:55:37;;;;;;;12.10;5.07;;;;;;;;;;5092046;28;20254;-61
2021/05/05 09:58:19;;;;;;;8.77;5.37;;;;;;;;;;5092456;28;20204;-61
2021/05/05 10:00:45;;;;;;;9.90;5.30;;;;;;;;;;5092236;28;20214;-63
2021/05/05 10:03:12;;;;;;;12.67;5.60;;;;;;;;;;5092415;28;20722;-62
2021/05/05 10:05:38;;;;;;;9.23;4.80;;;;;;;;;;5092174;28;20232;-62
2021/05/05 10:08:07;;;;;;;10.37;5.63;;;;;;;;;;5092024;28;20446;-61
2021/05/05 10:10:34;;;;;;;7.67;5.47;;;;;;;;;;5092177;28;20205;-63
2021/05/05 10:13:02;;;;;;;7.33;4.80;;;;;;;;;;5091985;28;20232;-61
2021/05/05 10:15:30;;;;;;;9.00;5.13;;;;;;;;;;5092013;28;20228;-61
2021/05/05 10:17:57;;;;;;;13.77;5.93;;;;;;;;;;5091902;28;20256;-62
2021/05/05 10:20:25;;;;;;;7.43;5.20;;;;;;;;;;5091840;28;20233;-61
2021/05/05 10:22:53;;;;;;;7.23;3.87;;;;;;;;;;5091878;28;20238;-63
2021/05/05 10:25:20;;;;;;;6.37;4.20;;;;;;;;;;5091947;28;20709;-61
2021/05/05 10:27:46;;;;;;;7.60;4.23;;;;;;;;;;5091782;28;20206;-60
2021/05/05 10:30:15;;;;;;;6.73;4.10;;;;;;;;;;5092308;28;20211;-63
2021/05/05 10:32:43;;;;;;;6.53;3.60;;;;;;;;;;5092218;28;20237;-63
2021/05/05 10:35:10;;;;;;;4.60;3.10;;;;;;;;;;5091048;28;20199;-65
2021/05/05 10:37:40;;;;;;;5.93;3.33;;;;;;;;;;5091835;28;20746;-65
2021/05/05 10:40:15;;;;;;;6.13;3.43;;;;;;;;;;5091540;28;20258;-65
2021/05/05 10:42:49;;;;;;;6.03;3.80;;;;;;;;;;5091690;28;20296;-63
2021/05/05 10:45:27;;;;;;;5.00;3.13;;;;;;;;;;5091453;28;20223;-61
2021/05/05 10:48:03;;;;;;;5.73;3.70;;;;;;;;;;5091522;28;20211;-61
2021/05/05 10:50:30;;;;;;;6.23;3.80;;;;;;;;;;5091541;28;20226;-62
2021/05/05 10:53:03;;;;;;;2.80;2.40;;;;;;;;;;5091701;28;20220;-64
2021/05/05 10:55:34;;;;;;;2.77;2.00;;;;;;;;;;5091439;28;20204;-64
2021/05/05 10:58:05;;;;;;;3.40;1.93;;;;;;;;;;5090997;28;20204;-57
2021/05/05 11:00:44;;;;;;;3.37;2.10;;;;;;;;;;5091490;28;20204;-59
2021/05/05 11:03:10;;;;;;;3.20;1.67;;;;;;;;;;5091478;28;20224;-56
2021/05/05 11:05:38;;;;;;;3.10;1.90;;;;;;;;;;5091757;28;20223;-63
2021/05/05 11:08:05;;;;;;;8.03;2.83;;;;;;;;;;5091217;28;20735;-62
2021/05/05 11:10:51;;;;;;;6.87;2.30;;;;;;;;;;5091112;28;20231;-61
2021/05/05 11:13:33;;;;;;;2.90;2.43;;;;;;;;;;5091436;28;20311;-62
2021/05/05 11:16:00;;;;;;;8.93;3.27;;;;;;;;;;5089725;28;20210;-62
2021/05/05 11:18:43;;;;;;;6.33;3.53;;;;;;;;;;5091217;28;20230;-61
2021/05/05 11:21:10;;;;;;;6.23;2.80;;;;;;;;;;5091792;28;20274;-62
2021/05/05 11:23:44;;;;;;;6.00;3.00;;;;;;;;;;5091951;28;20316;-63
2021/05/05 11:26:17;;;;;;;4.87;3.00;;;;;;;;;;5091739;28;20321;-63
2021/05/05 11:28:50;;;;;;;6.33;3.70;;;;;;;;;;5091237;28;20212;-59
2021/05/05 11:31:18;;;;;;;5.90;3.17;;;;;;;;;;5091149;28;20206;-61
2021/05/05 11:33:54;;;;;;;6.77;4.60;;;;;;;;;;5091299;28;20230;-60
2021/05/05 11:36:21;;;;;;;9.23;4.53;;;;;;;;;;5091398;28;20212;-60
2021/05/05 11:38:47;;;;;;;6.67;4.20;;;;;;;;;;5091936;28;20214;-60
2021/05/05 11:41:21;;;;;;;6.17;3.23;;;;;;;;;;5090961;28;20663;-61
2021/05/05 11:43:47;;;;;;;4.63;3.07;;;;;;;;;;5090831;28;20236;-63
2021/05/05 11:46:14;;;;;;;6.03;3.30;;;;;;;;;;5091785;28;20236;-63
2021/05/05 11:48:42;;;;;;;4.40;3.57;;;;;;;;;;5094407;28;20457;-62
2021/05/05 11:51:32;;;;;;;9.17;3.97;;;;;;;;;;5094424;28;20446;-63
2021/05/05 11:54:11;;;;;;;3.57;2.50;;;;;;;;;;5079215;28;20508;-62
2021/05/05 11:56:38;;;;;;;6.07;4.10;;;;;;;;;;5094509;28;20442;-62
2021/05/05 11:59:05;;;;;;;9.60;3.70;;;;;;;;;;5093946;28;20472;-62
2021/05/05 12:01:36;;;;;;;2.13;1.93;;;;;;;;;;5094529;28;20450;-64
2021/05/05 12:04:19;;;;;;;2.80;1.70;;;;;;;;;;5094295;28;21043;-65
2021/05/05 12:06:47;;;;;;;1.83;1.63;;;;;;;;;;5094281;28;20538;-64
2021/05/05 12:09:20;;;;;;;2.90;2.43;;;;;;;;;;5094148;28;20508;-65
2021/05/05 12:11:47;;;;;;;3.80;2.10;;;;;;;;;;5094082;28;20455;-63
2021/05/05 12:14:27;;;;;;;3.23;1.93;;;;;;;;;;5094288;28;20496;-66
2021/05/05 12:16:56;;;;;;;2.63;1.50;;;;;;;;;;5094190;28;20925;-61
2021/05/05 12:19:24;;;;;;;3.37;2.03;;;;;;;;;;5093589;28;20466;-62
2021/05/05 12:21:51;;;;;;;1.50;1.20;;;;;;;;;;5094076;28;20555;-61
2021/05/05 12:24:17;;;;;;;4.70;2.37;;;;;;;;;;5094360;28;20209;-61
2021/05/05 12:26:44;;;;;;;3.87;1.60;;;;;;;;;;5094180;28;20241;-61
2021/05/05 12:29:10;;;;;;;5.07;2.13;;;;;;;;;;5093936;28;20209;-60
2021/05/05 12:31:38;;;;;;;6.80;2.00;;;;;;;;;;5093649;28;20232;-60
2021/05/05 12:34:07;;;;;;;5.97;2.60;;;;;;;;;;5094155;28;20228;-61
2021/05/05 12:36:35;;;;;;;5.80;2.13;;;;;;;;;;5094098;28;20289;-63
2021/05/05 12:39:05;;;;;;;7.10;2.17;;;;;;;;;;5093418;28;20200;-62
2021/05/05 12:41:39;;;;;;;8.33;2.50;;;;;;;;;;5093787;28;20204;-61
2021/05/05 12:44:06;;;;;;;8.20;2.60;;;;;;;;;;5093432;28;20282;-59
2021/05/05 12:46:34;;;;;;;5.63;2.80;;;;;;;;;;5093685;28;20224;-61
2021/05/05 12:49:02;;;;;;;7.40;3.10;;;;;;;;;;5093323;28;20266;-60
2021/05/05 12:51:37;;;;;;;5.40;2.60;;;;;;;;;;5093578;28;20672;-60
2021/05/05 12:54:05;;;;;;;7.80;3.17;;;;;;;;;;5093798;28;20284;-60
2021/05/05 12:56:39;;;;;;;7.73;3.27;;;;;;;;;;5093778;28;20668;-56
2021/05/05 12:59:06;;;;;;;4.10;2.10;;;;;;;;;;5092657;28;20288;-56
2021/05/05 13:01:33;;;;;;;4.93;1.90;;;;;;;;;;5093637;28;20208;-61
2021/05/05 13:04:00;;;;;;;3.80;2.20;;;;;;;;;;5093620;28;20982;-60
2021/05/05 13:06:37;;;;;;;4.50;2.10;;;;;;;;;;5093488;28;20920;-61
2021/05/05 13:09:09;;;;;;;4.33;1.73;;;;;;;;;;5092887;28;20453;-62
2021/05/05 13:11:38;;;;;;;5.77;2.50;;;;;;;;;;5093198;28;20457;-59
2021/05/05 13:14:07;;;;;;;4.17;2.43;;;;;;;;;;5093145;28;20505;-60
2021/05/05 13:16:47;;;;;;;5.10;2.77;;;;;;;;;;5093046;28;20820;-61
2021/05/05 13:30:25;;;;;;;7.30;3.87;;;;;;;;;;5092630;28;21020;-61
2021/05/05 13:32:53;;;;;;;8.67;5.13;;;;;;;;;;5092863;28;20524;-60
2021/05/05 13:35:27;;;;;;;6.00;4.67;;;;;;;;;;5092045;28;20522;-61
2021/05/05 13:37:57;;;;;;;10.33;4.93;;;;;;;;;;5092510;28;20547;-57
2021/05/05 13:40:25;;;;;;;9.00;4.97;;;;;;;;;;5092642;28;20446;-57
2021/05/05 13:42:54;;;;;;;8.43;4.90;;;;;;;;;;5092616;28;20508;-56
2021/05/05 13:45:21;;;;;;;5.03;3.20;;;;;;;;;;5092839;28;20565;-55
2021/05/05 13:47:54;;;;;;;7.30;4.20;;;;;;;;;;5092557;28;20446;-54
2021/05/05 13:50:21;;;;;;;9.30;4.80;;;;;;;;;;5092354;28;20499;-56
2021/05/05 13:52:51;;;;;;;6.73;4.00;;;;;;;;;;5092612;28;20619;-59
2021/05/05 13:55:18;;;;;;;11.20;4.43;;;;;;;;;;5092332;28;20294;-59
2021/05/05 13:57:46;;;;;;;5.93;3.07;;;;;;;;;;5092013;28;20916;-56
2021/05/05 14:00:14;;;;;;;11.37;5.23;;;;;;;;;;5092316;28;20201;-63
2021/05/05 14:02:41;;;;;;;8.53;4.00;;;;;;;;;;5092115;28;20232;-64
2021/05/05 14:05:08;;;;;;;8.30;4.17;;;;;;;;;;5092436;28;20280;-61
2021/05/05 14:07:36;;;;;;;6.57;2.80;;;;;;;;;;5091730;28;20695;-60
2021/05/05 14:10:03;;;;;;;8.27;3.83;;;;;;;;;;5091599;28;20204;-61
2021/05/05 14:12:29;;;;;;;10.77;4.10;;;;;;;;;;5092374;28;20351;-61
2021/05/05 14:14:57;;;;;;;10.03;4.30;;;;;;;;;;5092424;28;20208;-60
2021/05/05 14:17:23;;;;;;;8.90;3.97;;;;;;;;;;5092097;28;20584;-61
2021/05/05 14:19:50;;;;;;;7.83;3.73;;;;;;;;;;5091648;28;20299;-61
2021/05/05 14:22:17;;;;;;;5.63;3.23;;;;;;;;;;5092129;28;20241;-61
2021/05/05 14:24:43;;;;;;;7.37;4.00;;;;;;;;;;5091634;28;20207;-62
2021/05/05 14:27:10;;;;;;;11.77;4.53;;;;;;;;;;5092545;28;20211;-64
2021/05/05 14:29:37;;;;;;;6.03;4.30;;;;;;;;;;5091941;28;20226;-60
2021/05/05 14:32:04;;;;;;;9.83;5.17;;;;;;;;;;5092152;28;20252;-60
2021/05/05 14:34:31;;;;;;;9.93;5.77;;;;;;;;;;5091952;28;20210;-61
2021/05/05 14:36:59;;;;;;;8.07;5.10;;;;;;;;;;5092182;28;20267;-65
2021/05/05 14:39:25;;;;;;;8.00;5.90;;;;;;;;;;5092017;28;20205;-61
2021/05/05 14:41:52;;;;;;;15.23;6.60;;;;;;;;;;5091759;28;20220;-62
2021/05/05 14:44:22;;;;;;;12.70;6.23;;;;;;;;;;5091853;28;20212;-60
2021/05/05 14:49:34;;;;;;;9.47;5.20;;;;;;;;;;5091289;28;20216;-56
2021/05/05 14:52:00;;;;;;;12.13;5.70;;;;;;;;;;5092676;28;20214;-64
2021/05/05 14:54:27;;;;;;;13.20;4.60;;;;;;;;;;5093268;28;20229;-61
2021/05/05 14:56:53;;;;;;;13.23;5.50;;;;;;;;;;5092670;28;20254;-61
2021/05/05 14:59:20;;;;;;;10.93;4.07;;;;;;;;;;5091668;28;20295;-62